Time;durP1;ratioP1;P1;durP2;ratioP2;P2;SDS_P1;SDS_P2;PMS_P1;PMS_P2;Temp;Humidity;BMP_temperature;BMP_pressure;BME280_temperature;BME280_humidity;BME280_pressure;Samples;Min_cycle;Max_cycle;Signal;HPM_P1;HPM_P2
2021/09/18 00:00:41;;;;;;;4.97;4.33;;;15.80;99.90;;;;;;5053263;28;20497;-57
2021/09/18 00:03:08;;;;;;;4.67;4.23;;;15.80;99.90;;;;;;5053058;28;20536;-57
2021/09/18 00:05:35;;;;;;;6.20;5.20;;;15.70;99.90;;;;;;5053469;28;20995;-57
2021/09/18 00:08:02;;;;;;;4.70;4.20;;;15.70;99.90;;;;;;5053114;28;20448;-57
2021/09/18 00:10:29;;;;;;;5.77;4.90;;;15.60;99.90;;;;;;5052502;28;20456;-57
2021/09/18 00:12:57;;;;;;;4.47;4.07;;;15.60;99.90;;;;;;5053162;28;20451;-57
2021/09/18 00:15:24;;;;;;;6.47;4.63;;;15.60;99.90;;;;;;5052844;28;20529;-57
2021/09/18 00:17:53;;;;;;;5.73;4.60;;;15.60;99.90;;;;;;5053117;28;20439;-57
2021/09/18 00:20:20;;;;;;;6.50;4.57;;;15.60;99.90;;;;;;5052719;28;20459;-57
2021/09/18 00:22:47;;;;;;;5.60;4.23;;;15.60;99.90;;;;;;5052585;28;20483;-57
2021/09/18 00:25:17;;;;;;;4.90;4.37;;;15.60;99.90;;;;;;5052169;28;20471;-57
2021/09/18 00:27:44;;;;;;;9.37;4.40;;;15.60;99.90;;;;;;5053094;28;20455;-57
2021/09/18 00:30:15;;;;;;;4.10;3.70;;;15.50;99.90;;;;;;5052794;28;20529;-57
2021/09/18 00:32:43;;;;;;;4.90;4.37;;;15.50;99.90;;;;;;5052943;28;20579;-57
2021/09/18 00:35:11;;;;;;;7.77;4.73;;;15.50;99.90;;;;;;5081806;22;20930;-54
2021/09/18 00:37:38;;;;;;;4.67;4.27;;;15.50;99.90;;;;;;5072586;28;20451;-53
2021/09/18 00:40:07;;;;;;;5.43;4.77;;;15.50;99.90;;;;;;5072660;28;20869;-53
2021/09/18 00:42:35;;;;;;;6.53;4.63;;;15.50;99.90;;;;;;5062964;28;20849;-53
2021/09/18 00:45:02;;;;;;;5.30;4.80;;;15.50;99.90;;;;;;5059517;28;20463;-53
2021/09/18 00:47:30;;;;;;;6.43;5.00;;;15.40;99.90;;;;;;5056883;28;20517;-52
2021/09/18 00:49:57;;;;;;;4.50;4.10;;;15.40;99.90;;;;;;5052525;28;20998;-52
2021/09/18 00:52:24;;;;;;;5.70;4.37;;;15.40;99.90;;;;;;5064953;28;20496;-53
2021/09/18 00:54:52;;;;;;;6.63;5.40;;;15.50;99.90;;;;;;5072382;28;20592;-52
2021/09/18 00:57:19;;;;;;;6.50;4.77;;;15.50;99.90;;;;;;5070655;28;20443;-53
2021/09/18 00:59:46;;;;;;;5.83;4.90;;;15.50;99.90;;;;;;5052456;28;20509;-54
2021/09/18 01:02:14;;;;;;;8.27;5.10;;;15.40;99.90;;;;;;5037728;28;20499;-52
2021/09/18 01:04:43;;;;;;;8.20;5.10;;;15.50;99.90;;;;;;5034154;28;20484;-52
2021/09/18 01:07:10;;;;;;;5.53;4.63;;;15.50;99.90;;;;;;5071632;28;20450;-52
2021/09/18 01:09:37;;;;;;;5.40;4.90;;;15.50;99.90;;;;;;5072128;28;20455;-53
2021/09/18 01:12:06;;;;;;;5.00;4.43;;;15.40;99.90;;;;;;5071737;28;20454;-54
2021/09/18 01:14:33;;;;;;;5.33;4.83;;;15.30;99.90;;;;;;5065815;28;20491;-52
2021/09/18 01:17:01;;;;;;;11.80;5.33;;;15.30;99.90;;;;;;5048296;28;20505;-53
2021/09/18 01:19:28;;;;;;;5.20;4.70;;;15.30;99.90;;;;;;5061639;28;20541;-51
2021/09/18 01:21:57;;;;;;;4.87;4.40;;;15.30;99.90;;;;;;5071669;28;20450;-53
2021/09/18 01:24:26;;;;;;;5.90;4.70;;;15.30;99.90;;;;;;5071646;28;21207;-52
2021/09/18 01:26:53;;;;;;;7.23;4.50;;;15.30;99.90;;;;;;5046994;28;20966;-54
2021/09/18 01:29:20;;;;;;;7.17;4.90;;;15.30;99.90;;;;;;5032081;28;20453;-52
2021/09/18 01:31:48;;;;;;;5.53;4.93;;;15.30;99.90;;;;;;5032795;28;20966;-55
2021/09/18 01:34:19;;;;;;;6.07;4.83;;;15.20;99.90;;;;;;5034591;28;20917;-53
2021/09/18 01:36:47;;;;;;;6.97;5.40;;;15.20;99.90;;;;;;5031762;28;20563;-53
2021/09/18 01:39:16;;;;;;;7.20;5.20;;;15.20;99.90;;;;;;5031668;28;20448;-52
2021/09/18 01:41:47;;;;;;;7.07;5.10;;;15.10;99.90;;;;;;5031921;28;20448;-53
2021/09/18 01:44:14;;;;;;;5.73;4.93;;;15.10;99.90;;;;;;5047444;28;21030;-52
2021/09/18 01:46:42;;;;;;;6.73;5.03;;;15.10;99.90;;;;;;5049120;28;20468;-53
2021/09/18 01:49:13;;;;;;;9.47;6.10;;;15.00;99.90;;;;;;5051505;28;20451;-54
2021/09/18 01:51:42;;;;;;;7.80;5.87;;;15.00;99.90;;;;;;5051358;28;20451;-52
2021/09/18 01:54:10;;;;;;;7.57;5.90;;;15.00;99.90;;;;;;5033202;28;20950;-52
2021/09/18 01:56:37;;;;;;;8.00;5.33;;;14.90;99.90;;;;;;5043656;28;20528;-53
2021/09/18 01:59:06;;;;;;;6.57;5.17;;;14.90;99.90;;;;;;5044181;28;20879;-52
2021/09/18 02:01:33;;;;;;;6.43;5.70;;;14.90;99.90;;;;;;5047029;28;20451;-52
2021/09/18 02:04:00;;;;;;;7.30;5.47;;;14.90;99.90;;;;;;5051387;28;20512;-53
2021/09/18 02:06:27;;;;;;;5.70;4.67;;;14.90;99.90;;;;;;5051317;28;20467;-53
2021/09/18 02:08:54;;;;;;;6.00;4.93;;;14.80;99.90;;;;;;5051356;28;20952;-53
2021/09/18 02:11:22;;;;;;;5.40;4.60;;;14.80;99.90;;;;;;5051322;28;20506;-53
2021/09/18 02:13:49;;;;;;;6.13;4.80;;;14.80;99.90;;;;;;5055617;28;20439;-53
2021/09/18 02:16:17;;;;;;;6.00;5.30;;;14.80;99.90;;;;;;5050859;28;20948;-53
2021/09/18 02:18:44;;;;;;;7.23;5.47;;;14.70;99.90;;;;;;5036254;28;20518;-53
2021/09/18 02:21:11;;;;;;;7.23;5.60;;;14.70;99.90;;;;;;5035374;28;20452;-52
2021/09/18 02:23:38;;;;;;;8.53;4.87;;;14.70;99.90;;;;;;5035385;28;20483;-53
2021/09/18 02:26:05;;;;;;;6.40;5.30;;;14.70;99.90;;;;;;5035326;28;20531;-52
2021/09/18 02:28:32;;;;;;;6.20;5.20;;;14.60;99.90;;;;;;5053908;28;20459;-52
2021/09/18 02:30:59;;;;;;;7.03;5.03;;;14.70;99.90;;;;;;5052843;28;20444;-53
2021/09/18 02:33:27;;;;;;;6.83;5.80;;;14.60;99.90;;;;;;5054963;28;20447;-53
2021/09/18 02:35:55;;;;;;;5.60;5.00;;;14.60;99.90;;;;;;5055022;28;20537;-54
2021/09/18 02:38:22;;;;;;;6.53;5.43;;;14.60;99.90;;;;;;5055277;28;20440;-51
2021/09/18 02:40:52;;;;;;;6.40;5.07;;;14.50;99.90;;;;;;5059475;28;20844;-54
2021/09/18 02:43:19;;;;;;;8.33;5.70;;;14.50;99.90;;;;;;5055403;28;20996;-52
2021/09/18 02:45:46;;;;;;;6.80;5.20;;;14.50;99.90;;;;;;5047954;28;20997;-54
2021/09/18 02:48:13;;;;;;;6.07;5.10;;;14.50;99.90;;;;;;5045289;28;20509;-52
2021/09/18 02:50:42;;;;;;;8.60;5.10;;;14.50;99.90;;;;;;5046223;28;20456;-52
2021/09/18 02:53:09;;;;;;;7.33;5.13;;;14.50;99.90;;;;;;5034923;28;20461;-53
2021/09/18 02:55:36;;;;;;;10.30;5.60;;;14.30;99.90;;;;;;5051482;28;20478;-52
2021/09/18 02:58:03;;;;;;;9.80;5.27;;;14.30;99.90;;;;;;5054412;28;20948;-52
2021/09/18 03:00:31;;;;;;;5.83;4.60;;;14.40;99.90;;;;;;5054237;28;20497;-54
2021/09/18 03:02:58;;;;;;;6.77;4.87;;;14.30;99.90;;;;;;5044817;28;20444;-53
2021/09/18 03:05:25;;;;;;;6.03;4.90;;;14.20;99.90;;;;;;5047728;28;21068;-52
2021/09/18 03:07:53;;;;;;;7.80;5.07;;;14.10;99.90;;;;;;5054567;28;20440;-52
2021/09/18 03:10:20;;;;;;;6.23;4.90;;;14.10;99.90;;;;;;5053562;28;20497;-52
2021/09/18 03:12:47;;;;;;;7.40;5.27;;;14.00;99.90;;;;;;5054286;28;20452;-52
2021/09/18 03:15:17;;;;;;;6.17;4.90;;;14.00;99.90;;;;;;5054228;28;20482;-52
2021/09/18 03:17:44;;;;;;;6.47;4.83;;;14.10;99.90;;;;;;5042023;28;20443;-51
2021/09/18 03:20:15;;;;;;;6.13;5.40;;;14.00;99.90;;;;;;5054175;28;20452;-53
2021/09/18 03:22:42;;;;;;;7.00;5.07;;;13.90;99.90;;;;;;5053956;28;20448;-53
2021/09/18 03:25:12;;;;;;;7.73;5.47;;;14.00;99.90;;;;;;5052987;28;20487;-52
2021/09/18 03:27:39;;;;;;;6.07;5.40;;;13.90;99.90;;;;;;5048059;28;20445;-53
2021/09/18 03:30:08;;;;;;;5.70;4.80;;;14.00;99.90;;;;;;5049600;28;20455;-55
2021/09/18 03:32:35;;;;;;;8.00;5.73;;;14.00;99.90;;;;;;5049795;28;20522;-52
2021/09/18 03:35:03;;;;;;;7.93;5.27;;;13.80;99.90;;;;;;5053214;28;20513;-52
2021/09/18 03:37:33;;;;;;;6.77;5.40;;;13.80;99.90;;;;;;5053286;28;20444;-52
2021/09/18 03:40:00;;;;;;;9.87;5.20;;;13.80;99.90;;;;;;5052589;28;20460;-52
2021/09/18 03:42:29;;;;;;;7.50;5.50;;;13.90;99.90;;;;;;5052999;28;20456;-53
2021/09/18 03:44:56;;;;;;;5.33;4.80;;;13.90;99.90;;;;;;5052925;28;20818;-52
2021/09/18 03:47:23;;;;;;;6.33;4.73;;;13.90;99.90;;;;;;5053035;28;20459;-51
2021/09/18 03:49:50;;;;;;;7.50;5.57;;;13.90;99.90;;;;;;5053876;28;20444;-51
2021/09/18 03:52:18;;;;;;;6.00;5.00;;;13.80;99.90;;;;;;5052047;28;20455;-52
2021/09/18 03:54:45;;;;;;;8.10;6.00;;;13.70;99.90;;;;;;5051769;28;20529;-51
2021/09/18 03:57:12;;;;;;;7.07;5.23;;;13.70;99.90;;;;;;5048533;28;20440;-51
2021/09/18 03:59:41;;;;;;;6.63;5.07;;;13.70;99.90;;;;;;5052040;28;20455;-52
2021/09/18 04:02:08;;;;;;;6.17;5.30;;;13.70;99.90;;;;;;5052891;28;20443;-51
2021/09/18 04:04:35;;;;;;;5.87;5.10;;;13.70;99.90;;;;;;5050371;28;20475;-51
2021/09/18 04:07:03;;;;;;;6.10;5.37;;;13.60;99.90;;;;;;5051908;28;20834;-51
2021/09/18 04:09:30;;;;;;;6.23;5.40;;;13.50;99.90;;;;;;5051989;28;20531;-52
2021/09/18 04:11:58;;;;;;;8.20;5.87;;;13.50;99.90;;;;;;5051597;28;20440;-51
2021/09/18 04:14:25;;;;;;;8.40;6.23;;;13.40;99.90;;;;;;5051636;28;20482;-52
2021/09/18 04:16:54;;;;;;;8.63;5.00;;;13.40;99.90;;;;;;5051830;28;20444;-52
2021/09/18 04:19:21;;;;;;;7.40;4.67;;;13.50;99.90;;;;;;5049378;28;20501;-52
2021/09/18 04:21:48;;;;;;;7.40;5.43;;;13.50;99.90;;;;;;5049849;28;20448;-52
2021/09/18 04:24:15;;;;;;;5.70;4.87;;;13.50;99.90;;;;;;5051078;28;20476;-51
2021/09/18 04:26:43;;;;;;;8.20;4.97;;;13.60;99.90;;;;;;5051618;28;20464;-51
2021/09/18 04:29:10;;;;;;;6.73;5.20;;;13.60;99.90;;;;;;5049978;28;20451;-52
2021/09/18 04:31:37;;;;;;;7.80;5.60;;;13.60;99.90;;;;;;5050712;28;21012;-51
2021/09/18 04:34:06;;;;;;;7.47;5.43;;;13.50;99.90;;;;;;5048756;28;20473;-52
2021/09/18 04:36:33;;;;;;;8.60;6.10;;;13.40;99.90;;;;;;5041580;28;20567;-52
2021/09/18 04:39:00;;;;;;;7.30;6.00;;;13.30;99.90;;;;;;5053319;28;20459;-52
2021/09/18 04:41:27;;;;;;;8.87;6.07;;;13.20;99.90;;;;;;5052869;28;20459;-52
2021/09/18 04:43:54;;;;;;;8.00;5.80;;;13.10;99.90;;;;;;5051370;28;20479;-52
2021/09/18 04:46:21;;;;;;;11.43;7.10;;;13.10;99.90;;;;;;5048213;28;20471;-52
2021/09/18 04:48:48;;;;;;;8.73;6.40;;;13.10;99.90;;;;;;5050970;28;20957;-53
2021/09/18 04:51:17;;;;;;;8.20;5.73;;;13.10;99.90;;;;;;5046306;28;20966;-53
2021/09/18 04:53:44;;;;;;;8.00;6.20;;;13.10;99.90;;;;;;5051486;28;20448;-53
2021/09/18 04:56:11;;;;;;;10.30;6.70;;;13.10;99.90;;;;;;5051552;28;20499;-53
2021/09/18 04:58:38;;;;;;;10.43;6.40;;;13.10;99.90;;;;;;5051904;28;20443;-53
2021/09/18 05:01:05;;;;;;;8.63;6.27;;;13.20;99.90;;;;;;5050954;28;20439;-53
2021/09/18 05:03:32;;;;;;;9.73;6.57;;;13.30;99.90;;;;;;5049578;28;20513;-53
2021/09/18 05:05:59;;;;;;;11.30;6.60;;;13.40;99.90;;;;;;5052406;28;20836;-52
2021/09/18 05:08:27;;;;;;;9.90;7.00;;;13.40;99.90;;;;;;5039039;28;20515;-52
2021/09/18 05:10:55;;;;;;;10.63;6.77;;;13.40;99.90;;;;;;5031788;28;20500;-51
2021/09/18 05:13:22;;;;;;;10.00;6.80;;;13.50;99.90;;;;;;5047991;28;20448;-52
2021/09/18 05:15:49;;;;;;;10.40;6.80;;;13.60;99.90;;;;;;5051940;28;20463;-52
2021/09/18 05:18:16;;;;;;;9.27;6.50;;;13.60;99.90;;;;;;5033697;28;21047;-52
2021/09/18 05:20:43;;;;;;;8.40;6.40;;;13.60;99.90;;;;;;5032163;28;20500;-52
2021/09/18 05:23:10;;;;;;;10.30;7.20;;;13.60;99.90;;;;;;5053516;28;20560;-53
2021/09/18 05:25:38;;;;;;;12.30;7.60;;;13.60;99.90;;;;;;5054265;28;20533;-53
2021/09/18 05:28:05;;;;;;;9.90;7.07;;;13.60;99.90;;;;;;5051589;28;20501;-53
2021/09/18 05:30:33;;;;;;;9.77;6.83;;;13.50;99.90;;;;;;5053138;28;20464;-53
2021/09/18 05:32:59;;;;;;;10.87;7.37;;;13.50;99.90;;;;;;5051935;28;20502;-53
2021/09/18 05:35:27;;;;;;;9.50;7.07;;;13.50;99.90;;;;;;5043328;28;20476;-53
2021/09/18 05:37:54;;;;;;;10.37;7.00;;;13.60;99.90;;;;;;5056193;28;20497;-53
2021/09/18 05:40:24;;;;;;;9.27;7.50;;;13.70;99.90;;;;;;5062064;28;20446;-53
2021/09/18 05:42:53;;;;;;;10.23;7.03;;;13.70;99.90;;;;;;5059260;28;20467;-52
2021/09/18 05:45:20;;;;;;;9.50;6.70;;;13.80;99.90;;;;;;5049202;28;20541;-54
2021/09/18 05:47:47;;;;;;;12.40;7.00;;;13.80;99.90;;;;;;5051072;28;20460;-54
2021/09/18 05:50:18;;;;;;;11.73;6.80;;;14.00;99.90;;;;;;5050235;28;20452;-52
2021/09/18 05:52:45;;;;;;;9.23;6.60;;;14.10;99.90;;;;;;5051358;28;20452;-54
2021/09/18 05:55:16;;;;;;;10.20;6.90;;;14.20;99.90;;;;;;5048709;28;20877;-54
2021/09/18 05:57:43;;;;;;;9.53;6.60;;;14.30;99.90;;;;;;5047853;28;20447;-52
2021/09/18 06:00:12;;;;;;;8.95;7.05;;;14.50;99.90;;;;;;5049044;28;20443;-54
2021/09/18 06:02:41;;;;;;;7.63;6.30;;;14.70;99.90;;;;;;5058304;28;20208;-53
2021/09/18 06:05:09;;;;;;;7.83;6.27;;;14.80;99.90;;;;;;5051234;28;20495;-52
2021/09/18 06:07:36;;;;;;;9.80;6.30;;;15.00;99.90;;;;;;5050727;28;20865;-53
2021/09/18 06:10:04;;;;;;;11.20;7.93;;;15.10;99.90;;;;;;5050149;28;20466;-52
2021/09/18 06:12:31;;;;;;;10.97;7.80;;;15.20;99.90;;;;;;5050438;28;20450;-53
2021/09/18 06:14:59;;;;;;;10.60;7.43;;;15.50;99.90;;;;;;5044070;28;20521;-53
2021/09/18 06:17:27;;;;;;;10.20;7.47;;;16.00;99.90;;;;;;5050005;28;20440;-52
2021/09/18 06:19:54;;;;;;;8.83;6.53;;;16.80;99.90;;;;;;5050825;28;20525;-54
2021/09/18 06:22:21;;;;;;;8.90;7.10;;;17.50;99.90;;;;;;5050366;28;20448;-54
2021/09/18 06:24:48;;;;;;;10.93;7.93;;;18.10;99.90;;;;;;5050527;28;21057;-54
2021/09/18 06:27:15;;;;;;;7.50;6.10;;;18.40;99.90;;;;;;5050706;28;20447;-53
2021/09/18 06:29:42;;;;;;;8.30;6.13;;;18.90;99.90;;;;;;5046792;28;20456;-55
2021/09/18 06:32:09;;;;;;;9.00;7.10;;;19.50;99.90;;;;;;5050153;28;20455;-55
2021/09/18 06:34:38;;;;;;;10.30;8.30;;;19.90;99.90;;;;;;5046069;28;20497;-53
2021/09/18 06:37:06;;;;;;;9.93;7.67;;;20.20;99.90;;;;;;5090145;22;20544;-59
2021/09/18 06:39:34;;;;;;;10.07;7.03;;;20.30;99.90;;;;;;5072649;28;20963;-59
2021/09/18 06:42:01;;;;;;;8.73;7.23;;;20.20;99.90;;;;;;5071172;28;20534;-59
2021/09/18 06:44:28;;;;;;;11.97;8.00;;;20.00;99.90;;;;;;5068159;28;20944;-59
2021/09/18 06:46:55;;;;;;;10.23;7.53;;;19.80;99.90;;;;;;5054195;28;20475;-58
2021/09/18 06:49:22;;;;;;;9.30;7.60;;;19.40;99.90;;;;;;5049341;28;21253;-59
2021/09/18 06:51:51;;;;;;;10.43;7.50;;;19.30;99.90;;;;;;5049406;28;20877;-58
2021/09/18 06:54:18;;;;;;;9.40;8.27;;;19.10;99.90;;;;;;5049231;28;20460;-58
2021/09/18 06:56:45;;;;;;;15.37;9.97;;;18.80;99.90;;;;;;5060076;28;20984;-58
2021/09/18 06:59:12;;;;;;;13.67;9.73;;;18.50;99.90;;;;;;5069482;28;21017;-58
2021/09/18 07:01:39;;;;;;;12.50;9.20;;;18.00;99.90;;;;;;5061951;28;20487;-58
2021/09/18 07:04:06;;;;;;;14.20;9.20;;;18.10;99.90;;;;;;5051199;28;20455;-57
2021/09/18 07:06:33;;;;;;;14.80;11.00;;;18.00;99.90;;;;;;5060499;28;20491;-58
2021/09/18 07:09:01;;;;;;;13.80;10.17;;;18.10;99.90;;;;;;5072876;28;20442;-58
2021/09/18 07:11:28;;;;;;;14.77;11.20;;;18.30;99.90;;;;;;5061301;28;20467;-59
2021/09/18 07:13:55;;;;;;;13.37;9.50;;;18.30;99.90;;;;;;5057652;28;20877;-59
2021/09/18 07:16:22;;;;;;;14.77;10.63;;;18.50;99.90;;;;;;5056778;28;20898;-59
2021/09/18 07:18:49;;;;;;;15.90;9.97;;;18.40;99.90;;;;;;5068934;28;20456;-59
2021/09/18 07:21:16;;;;;;;14.57;8.97;;;18.30;99.90;;;;;;5054084;28;20864;-58
2021/09/18 07:23:43;;;;;;;12.43;9.37;;;18.50;99.90;;;;;;5054468;28;20448;-59
2021/09/18 07:26:12;;;;;;;11.60;7.67;;;18.80;99.90;;;;;;5054213;28;20541;-59
2021/09/18 07:28:40;;;;;;;10.97;7.97;;;19.20;99.90;;;;;;5053288;28;20452;-59
2021/09/18 07:31:06;;;;;;;9.93;7.80;;;19.20;99.90;;;;;;5053391;28;20451;-59
2021/09/18 07:33:33;;;;;;;9.80;7.43;;;18.80;99.90;;;;;;5049715;28;20444;-58
2021/09/18 07:36:01;;;;;;;8.83;6.70;;;18.40;99.90;;;;;;5053812;28;20896;-59
2021/09/18 07:38:28;;;;;;;10.60;6.97;;;17.60;99.90;;;;;;5054026;28;20501;-59
2021/09/18 07:40:56;;;;;;;8.50;7.07;;;17.50;99.90;;;;;;5053720;28;20938;-58
2021/09/18 07:43:25;;;;;;;11.33;7.80;;;17.70;99.90;;;;;;5050175;28;20529;-59
2021/09/18 07:45:52;;;;;;;11.07;7.90;;;18.50;99.90;;;;;;5053312;28;20476;-58
2021/09/18 07:48:19;;;;;;;9.17;6.10;;;19.00;99.90;;;;;;5053191;28;20456;-59
2021/09/18 07:50:46;;;;;;;9.30;6.20;;;19.60;99.90;;;;;;5053426;28;20448;-60
2021/09/18 07:53:13;;;;;;;8.23;5.90;;;20.00;99.90;;;;;;5053261;28;20455;-59
2021/09/18 07:55:40;;;;;;;7.10;5.80;;;20.40;99.90;;;;;;5053345;28;20887;-60
2021/09/18 07:58:07;;;;;;;6.17;5.03;;;20.80;99.90;;;;;;5053442;28;20509;-59
2021/09/18 08:00:36;;;;;;;8.10;6.20;;;21.30;99.90;;;;;;5051945;28;20999;-59
2021/09/18 08:03:03;;;;;;;7.17;6.00;;;21.80;99.90;;;;;;5051251;28;20525;-59
2021/09/18 08:05:30;;;;;;;8.53;5.93;;;21.70;99.90;;;;;;5051095;28;21149;-60
2021/09/18 08:07:57;;;;;;;7.73;6.30;;;22.00;99.90;;;;;;5053345;28;20952;-60
2021/09/18 08:10:24;;;;;;;7.70;6.30;;;22.40;99.90;;;;;;5052803;28;20455;-59
2021/09/18 08:12:51;;;;;;;9.77;7.30;;;22.40;99.90;;;;;;5052547;28;20452;-60
2021/09/18 08:15:20;;;;;;;7.47;6.67;;;22.80;99.90;;;;;;5053113;28;20479;-60
2021/09/18 08:17:48;;;;;;;8.87;6.83;;;23.40;99.90;;;;;;5052810;28;20957;-60
2021/09/18 08:20:20;;;;;;;7.90;6.80;;;23.80;99.90;;;;;;5052719;28;20452;-59
2021/09/18 08:22:47;;;;;;;9.40;6.90;;;23.80;99.90;;;;;;5052401;28;20448;-60
2021/09/18 08:25:15;;;;;;;8.40;7.47;;;23.90;99.90;;;;;;5052647;28;20930;-60
2021/09/18 08:27:42;;;;;;;7.77;6.90;;;23.90;99.90;;;;;;5052426;28;20459;-59
2021/09/18 08:30:10;;;;;;;7.53;6.73;;;23.90;99.90;;;;;;5052025;28;20451;-60
2021/09/18 08:32:37;;;;;;;7.13;6.33;;;23.60;99.90;;;;;;5052014;28;20517;-60
2021/09/18 08:35:07;;;;;;;10.17;7.50;;;23.20;99.90;;;;;;5052278;28;20456;-60
2021/09/18 08:37:34;;;;;;;8.63;7.07;;;23.60;99.90;;;;;;5052268;28;20451;-59
2021/09/18 08:40:02;;;;;;;7.90;6.87;;;23.10;99.90;;;;;;5053237;28;20505;-59
2021/09/18 08:42:29;;;;;;;8.40;7.60;;;23.30;99.90;;;;;;5048829;28;20447;-59
2021/09/18 08:44:56;;;;;;;9.60;7.03;;;22.80;99.90;;;;;;5052543;28;20440;-59
2021/09/18 08:47:24;;;;;;;9.33;7.77;;;22.00;99.90;;;;;;5051742;28;20463;-59
2021/09/18 08:49:52;;;;;;;8.07;7.10;;;21.90;99.90;;;;;;5052281;28;20811;-59
2021/09/18 08:52:20;;;;;;;8.00;7.20;;;22.00;99.90;;;;;;5052294;28;20455;-60
2021/09/18 08:54:47;;;;;;;10.00;6.20;;;22.30;99.90;;;;;;5051792;28;20823;-59
2021/09/18 08:57:14;;;;;;;6.50;5.80;;;22.50;99.90;;;;;;5052328;28;20521;-60
2021/09/18 08:59:43;;;;;;;8.50;6.10;;;22.80;99.90;;;;;;5051940;28;20451;-59
2021/09/18 09:02:15;;;;;;;5.90;5.30;;;23.20;99.90;;;;;;5052069;28;20501;-59
2021/09/18 09:04:43;;;;;;;8.63;5.97;;;23.80;99.90;;;;;;5051904;28;20448;-59
2021/09/18 09:07:12;;;;;;;8.23;6.90;;;24.20;99.90;;;;;;5052063;28;20487;-59
2021/09/18 09:10:02;;;;;;;7.60;6.57;;;23.50;99.90;;;;;;5051747;28;20444;-60
2021/09/18 09:12:31;;;;;;;9.17;6.47;;;23.90;99.90;;;;;;5037439;28;20542;-59
2021/09/18 09:14:59;;;;;;;7.93;6.70;;;23.60;99.90;;;;;;5051781;28;20942;-59
2021/09/18 09:17:28;;;;;;;8.73;6.17;;;23.00;99.90;;;;;;5051623;28;20451;-60
2021/09/18 09:19:56;;;;;;;7.27;5.67;;;23.00;99.90;;;;;;5049573;28;20823;-59
2021/09/18 09:22:40;;;;;;;7.90;5.50;;;23.40;99.90;;;;;;5052216;28;20446;-59
2021/09/18 09:25:27;;;;;;;8.60;7.37;;;23.60;99.90;;;;;;5048829;28;20451;-59
2021/09/18 09:27:54;;;;;;;9.33;7.60;;;23.10;99.90;;;;;;5062422;28;20451;-59
2021/09/18 09:30:30;;;;;;;9.83;6.67;;;23.50;99.90;;;;;;5059131;28;20447;-58
2021/09/18 09:33:06;;;;;;;9.00;7.73;;;23.50;99.90;;;;;;5051620;28;20489;-58
2021/09/18 09:35:33;;;;;;;8.40;6.80;;;22.30;99.90;;;;;;5051072;28;20470;-58
2021/09/18 09:38:00;;;;;;;7.60;6.30;;;22.40;99.90;;;;;;5068434;28;20960;-59
2021/09/18 09:40:34;;;;;;;7.90;6.70;;;23.30;99.90;;;;;;5068400;28;20884;-59
2021/09/18 09:43:01;;;;;;;9.47;8.00;;;23.80;99.90;;;;;;5062265;28;20504;-58
2021/09/18 09:45:28;;;;;;;11.80;8.23;;;24.00;99.90;;;;;;5069622;28;20462;-59
2021/09/18 09:48:07;;;;;;;8.23;7.37;;;23.40;99.90;;;;;;5069438;28;20473;-59
2021/09/18 09:50:35;;;;;;;8.37;7.20;;;23.50;99.90;;;;;;5050869;28;20494;-59
2021/09/18 09:53:04;;;;;;;9.97;7.20;;;24.20;99.90;;;;;;5050468;28;20875;-59
2021/09/18 09:55:36;;;;;;;8.47;7.07;;;24.50;99.90;;;;;;5050691;28;20522;-59
2021/09/18 09:58:04;;;;;;;9.37;7.17;;;24.40;99.90;;;;;;5050737;28;20446;-59
2021/09/18 10:00:43;;;;;;;11.53;7.50;;;24.30;99.90;;;;;;5046879;28;20440;-58
2021/09/18 10:03:11;;;;;;;9.93;8.23;;;24.20;99.90;;;;;;5050703;28;20500;-59
2021/09/18 10:05:38;;;;;;;9.17;7.73;;;24.70;99.90;;;;;;5052991;28;20529;-58
2021/09/18 10:08:06;;;;;;;10.57;9.13;;;24.30;99.90;;;;;;5050419;28;20497;-58
2021/09/18 10:10:35;;;;;;;8.90;7.80;;;23.50;99.90;;;;;;5056373;28;20455;-58
2021/09/18 10:13:03;;;;;;;10.10;8.63;;;23.20;99.90;;;;;;5069742;28;20550;-58
2021/09/18 10:15:31;;;;;;;11.50;8.57;;;22.60;99.90;;;;;;5059539;28;20477;-60
2021/09/18 10:18:00;;;;;;;9.03;8.03;;;23.00;99.90;;;;;;5067463;28;20438;-59
2021/09/18 10:23:15;;;;;;;10.53;8.77;;;23.00;99.90;;;;;;5051396;28;20431;-59
2021/09/18 10:25:47;;;;;;;8.10;7.17;;;23.40;99.90;;;;;;5051247;28;20479;-58
2021/09/18 10:28:16;;;;;;;11.80;8.17;;;22.90;99.90;;;;;;5050698;28;20450;-58
2021/09/18 10:30:46;;;;;;;12.47;8.07;;;22.40;99.90;;;;;;5050116;28;20447;-58
2021/09/18 10:33:33;;;;;;;10.97;8.20;;;22.10;99.90;;;;;;5049998;28;20455;-59
2021/09/18 10:36:03;;;;;;;11.83;8.73;;;22.30;99.90;;;;;;5053919;28;20475;-58
2021/09/18 10:38:32;;;;;;;12.07;9.20;;;23.00;99.90;;;;;;5054647;28;20518;-59
2021/09/18 10:41:04;;;;;;;10.30;8.70;;;23.50;99.90;;;;;;5054213;28;21026;-58
2021/09/18 10:43:33;;;;;;;10.30;9.03;;;24.00;99.90;;;;;;5054287;28;20967;-59
2021/09/18 10:46:01;;;;;;;13.30;8.43;;;24.00;99.90;;;;;;5053666;28;20551;-58
2021/09/18 10:48:42;;;;;;;11.27;9.20;;;23.60;99.90;;;;;;5052599;28;20883;-58
2021/09/18 10:51:29;;;;;;;13.03;9.90;;;22.10;99.90;;;;;;5053853;28;20483;-59
2021/09/18 10:54:12;;;;;;;12.70;9.63;;;21.80;99.90;;;;;;5052546;28;20501;-59
2021/09/18 10:57:04;;;;;;;11.43;9.50;;;22.10;99.90;;;;;;5053997;28;20542;-58
2021/09/18 10:59:55;;;;;;;10.90;9.13;;;22.00;99.90;;;;;;5053964;28;20945;-57
2021/09/18 11:02:45;;;;;;;12.50;9.97;;;21.80;99.90;;;;;;5038524;28;20848;-58
2021/09/18 11:05:56;;;;;;;13.67;7.90;;;21.90;99.90;;;;;;5054069;28;20452;-59
2021/09/18 11:08:37;;;;;;;11.57;9.13;;;22.40;99.90;;;;;;5053920;28;20482;-58
2021/09/18 11:11:09;;;;;;;9.97;8.50;;;22.50;99.90;;;;;;5055478;28;20953;-59
2021/09/18 11:13:40;;;;;;;14.00;9.83;;;22.60;99.90;;;;;;5063060;28;20443;-59
2021/09/18 11:16:19;;;;;;;11.63;9.00;;;22.70;99.90;;;;;;5072127;28;20527;-59
2021/09/18 11:18:51;;;;;;;10.87;8.97;;;22.70;99.90;;;;;;5052962;28;20443;-59
2021/09/18 11:21:22;;;;;;;11.23;9.23;;;21.90;99.90;;;;;;5057693;28;20439;-59
2021/09/18 11:23:52;;;;;;;12.83;8.93;;;22.00;99.90;;;;;;5053978;28;20475;-59
2021/09/18 11:26:40;;;;;;;11.23;8.57;;;21.90;99.90;;;;;;5053698;28;20545;-58
2021/09/18 11:29:15;;;;;;;9.13;7.60;;;21.10;99.90;;;;;;5052566;28;20886;-58
2021/09/18 11:31:55;;;;;;;10.00;7.47;;;20.70;99.90;;;;;;5053043;28;20497;-58
2021/09/18 11:34:24;;;;;;;10.67;7.97;;;20.70;99.90;;;;;;5053313;28;20455;-58
2021/09/18 11:36:53;;;;;;;9.37;7.17;;;20.70;99.90;;;;;;5072019;28;20469;-58
2021/09/18 11:39:36;;;;;;;7.20;5.97;;;20.40;99.90;;;;;;5110998;28;20450;-58
2021/09/18 11:42:11;;;;;;;8.40;6.23;;;20.60;99.90;;;;;;5103105;28;20506;-58
2021/09/18 11:44:39;;;;;;;7.17;6.37;;;21.20;99.90;;;;;;5113809;27;20448;-58
2021/09/18 11:47:06;;;;;;;8.47;6.57;;;21.20;99.90;;;;;;5032566;28;20482;-58
2021/09/18 11:49:33;;;;;;;7.50;6.37;;;21.00;99.90;;;;;;4995576;28;20450;-58
2021/09/18 11:52:01;;;;;;;7.53;6.83;;;20.90;99.90;;;;;;4994251;28;20451;-58
2021/09/18 11:54:28;;;;;;;7.57;6.77;;;20.70;99.90;;;;;;4993046;28;20501;-58
2021/09/18 11:56:55;;;;;;;8.57;6.10;;;20.80;99.90;;;;;;5002781;28;20470;-58
2021/09/18 11:59:22;;;;;;;5.60;5.00;;;21.30;99.90;;;;;;4996015;28;20505;-59
2021/09/18 12:01:50;;;;;;;7.07;5.43;;;21.30;99.90;;;;;;5004602;28;20872;-59
2021/09/18 12:04:17;;;;;;;5.80;5.30;;;21.70;99.90;;;;;;5001833;28;20449;-57
2021/09/18 12:06:45;;;;;;;6.00;5.30;;;21.90;99.90;;;;;;4994306;28;20486;-59
2021/09/18 12:09:12;;;;;;;7.30;6.13;;;22.10;99.90;;;;;;4990861;28;20490;-59
2021/09/18 12:11:39;;;;;;;7.47;6.50;;;21.90;99.90;;;;;;4991499;28;20447;-58
2021/09/18 12:14:06;;;;;;;9.43;6.13;;;21.30;99.90;;;;;;4975409;28;20451;-58
2021/09/18 12:16:36;;;;;;;7.07;5.50;;;21.60;99.90;;;;;;4975172;28;20498;-59
2021/09/18 12:19:05;;;;;;;7.00;6.07;;;21.90;99.90;;;;;;4993925;28;20443;-58
2021/09/18 12:21:34;;;;;;;6.33;5.50;;;21.40;99.90;;;;;;4991372;28;20995;-59
2021/09/18 12:24:03;;;;;;;7.93;6.23;;;21.40;99.90;;;;;;4996749;28;20533;-59
2021/09/18 12:26:32;;;;;;;6.60;5.43;;;21.40;99.90;;;;;;4988750;28;20486;-58
2021/09/18 12:29:06;;;;;;;9.10;7.13;;;21.60;99.90;;;;;;4993153;28;20877;-59
2021/09/18 12:31:33;;;;;;;8.07;6.10;;;21.20;99.90;;;;;;4992185;28;20454;-58
2021/09/18 12:34:08;;;;;;;6.90;6.10;;;21.00;99.90;;;;;;4993239;28;20442;-58
2021/09/18 12:36:36;;;;;;;7.60;6.80;;;21.10;99.90;;;;;;4993085;28;20470;-58
2021/09/18 12:39:06;;;;;;;7.07;5.70;;;21.10;99.90;;;;;;4993084;28;20446;-57
2021/09/18 12:41:34;;;;;;;7.10;5.73;;;20.90;99.90;;;;;;4992326;28;20494;-59
2021/09/18 12:44:04;;;;;;;6.40;5.70;;;21.00;99.90;;;;;;4994855;23;20491;-52
2021/09/18 12:46:40;;;;;;;5.57;4.97;;;20.80;99.90;;;;;;4989854;28;20486;-52
2021/09/18 12:49:09;;;;;;;5.33;4.80;;;20.80;99.90;;;;;;4992556;28;20462;-52
2021/09/18 12:51:38;;;;;;;6.73;5.37;;;20.80;99.90;;;;;;4992538;28;20453;-52
2021/09/18 12:54:15;;;;;;;6.93;5.70;;;21.00;99.90;;;;;;4972990;28;20447;-53